createdAt,value
2022-10-23T00:01:43.653Z,101407.59
2022-10-23T00:04:19.511Z,101406.41
2022-10-23T00:06:47.143Z,101400.06
2022-10-23T00:09:17.828Z,101407.09
2022-10-23T00:11:47.865Z,101380.56
2022-10-23T00:14:16.045Z,101403.81
2022-10-23T00:16:42.666Z,101388.63
2022-10-23T00:19:09.321Z,101398.31
2022-10-23T00:21:39.692Z,101392.16
2022-10-23T00:26:40.669Z,101380.41
2022-10-23T00:29:08.689Z,101376.25
2022-10-23T00:31:35.507Z,101398.41
2022-10-23T00:34:02.454Z,101406.78
2022-10-23T00:36:29.127Z,101403.34
2022-10-23T00:38:56.181Z,101387.47
2022-10-23T00:41:28.539Z,101401.44
2022-10-23T00:44:01.596Z,101401.69
2022-10-23T00:46:29.023Z,101402.19
2022-10-23T00:48:56.104Z,101395.19
2022-10-23T00:51:25.917Z,101375.50
2022-10-23T00:54:23.436Z,101392.47
2022-10-23T00:56:58.104Z,101391.91
2022-10-23T00:59:25.263Z,101391.06
2022-10-23T01:01:52.218Z,101394.19
2022-10-23T01:04:19.739Z,101372.66
2022-10-23T01:06:52.431Z,101393.16
2022-10-23T01:09:42.141Z,101379.53
2022-10-23T01:12:27.025Z,101380.34
2022-10-23T01:14:56.364Z,101390.41
2022-10-23T01:17:35.159Z,101364.56
2022-10-23T01:20:11.426Z,101378.75
2022-10-23T01:23:00.280Z,101386.81
2022-10-23T01:25:30.129Z,101379.59
2022-10-23T01:28:04.995Z,101371.88
2022-10-23T01:30:37.881Z,101379.38
2022-10-23T01:33:13.844Z,101358.38
2022-10-23T01:35:54.832Z,101350.63
2022-10-23T01:38:27.682Z,101381.09
2022-10-23T01:41:39.985Z,101379.69
2022-10-23T01:44:15.146Z,101374.50
2022-10-23T01:46:43.921Z,101348.66
2022-10-23T01:49:13.108Z,101364.56
2022-10-23T01:51:43.436Z,101354.59
2022-10-23T01:54:13.669Z,101313.81
2022-10-23T01:56:44.130Z,101342.78
2022-10-23T01:59:20.184Z,101315.78
2022-10-23T02:01:50.990Z,101342.09
2022-10-23T02:04:28.065Z,101341.22
2022-10-23T02:06:54.881Z,101334.47
2022-10-23T02:09:21.634Z,101318.13
2022-10-23T02:11:58.810Z,101332.50
2022-10-23T02:14:43.999Z,101339.72
2022-10-23T02:17:55.911Z,101332.13
2022-10-23T02:20:25.102Z,101330.53
2022-10-23T02:23:11.882Z,101300.69
2022-10-23T02:25:51.335Z,101321.69
2022-10-23T02:28:23.784Z,101335.94
2022-10-23T02:30:50.835Z,101333.66
2022-10-23T02:33:19.014Z,101323.72
2022-10-23T02:35:49.511Z,101323.56
2022-10-23T02:38:37.721Z,101296.56
2022-10-23T02:41:17.150Z,101304.88
2022-10-23T02:44:02.334Z,101301.44
2022-10-23T02:46:28.882Z,101300.53
2022-10-23T02:49:13.754Z,101279.91
2022-10-23T02:51:51.345Z,101287.00
2022-10-23T02:54:27.922Z,101252.09
2022-10-23T02:57:06.169Z,101274.03
2022-10-23T02:59:45.710Z,101244.31
2022-10-23T03:02:21.857Z,101267.22
2022-10-23T03:04:50.237Z,101265.50
2022-10-23T03:07:19.477Z,101227.00
2022-10-23T03:09:46.973Z,101216.63
2022-10-23T03:12:14.019Z,101249.78
2022-10-23T03:14:42.964Z,101212.00
2022-10-23T03:17:10.561Z,101238.84
2022-10-23T03:19:39.015Z,101233.38
2022-10-23T03:22:05.841Z,101223.72
2022-10-23T03:24:32.736Z,101239.84
2022-10-23T03:26:59.401Z,101235.22
2022-10-23T03:29:26.215Z,101229.59
2022-10-23T03:31:53.399Z,101205.34
2022-10-23T03:34:20.110Z,101225.69
2022-10-23T03:36:46.779Z,101220.84
2022-10-23T03:39:18.624Z,101219.69
2022-10-23T03:41:48.450Z,101211.06
2022-10-23T03:44:15.193Z,101209.03
2022-10-23T03:46:41.787Z,101211.63
2022-10-23T03:49:11.770Z,101207.28
2022-10-23T03:51:41.858Z,101209.72
2022-10-23T03:54:11.258Z,101205.81
2022-10-23T03:56:38.234Z,101174.53
2022-10-23T03:59:05.023Z,101199.16
2022-10-23T04:01:31.656Z,101199.88
2022-10-23T04:03:58.292Z,101202.28
2022-10-23T04:06:24.881Z,101198.84
2022-10-23T04:08:51.918Z,101188.59
2022-10-23T04:11:18.522Z,101183.25
2022-10-23T04:13:45.299Z,101161.94
2022-10-23T04:16:12.068Z,101180.38
2022-10-23T04:18:40.887Z,101145.16
2022-10-23T04:21:07.712Z,101171.00
2022-10-23T04:23:34.602Z,101174.56
2022-10-23T04:26:01.795Z,101170.84
2022-10-23T04:28:28.508Z,101144.69
2022-10-23T04:30:55.141Z,101174.66
2022-10-23T04:33:27.472Z,101173.25
2022-10-23T04:35:54.123Z,101163.47
2022-10-23T04:38:20.870Z,101163.69
2022-10-23T04:40:47.663Z,101166.44
2022-10-23T04:43:14.268Z,101156.50
2022-10-23T04:45:43.131Z,101143.75
2022-10-23T04:48:12.038Z,101131.66
2022-10-23T04:50:38.666Z,101156.94
2022-10-23T04:53:05.286Z,101155.94
2022-10-23T04:55:36.629Z,101152.47
2022-10-23T04:58:05.735Z,101152.16
2022-10-23T05:00:32.591Z,101156.78
2022-10-23T05:03:04.096Z,101154.38
2022-10-23T05:05:30.888Z,101150.78
2022-10-23T05:07:59.887Z,101141.13
2022-10-23T05:10:26.603Z,101123.28
2022-10-23T05:12:53.288Z,101140.97
2022-10-23T05:15:19.896Z,101116.38
2022-10-23T05:17:49.485Z,101110.59
2022-10-23T05:20:20.576Z,101111.06
2022-10-23T05:22:51.354Z,101131.22
2022-10-23T05:25:18.671Z,101124.34
2022-10-23T05:27:45.821Z,101109.84
2022-10-23T05:30:13.277Z,101140.78
2022-10-23T05:32:40.932Z,101136.47
2022-10-23T05:35:11.715Z,101102.47
2022-10-23T05:37:41.688Z,101133.91
2022-10-23T05:40:09.098Z,101133.91
2022-10-23T05:42:38.259Z,101127.53
2022-10-23T05:45:10.975Z,101124.97
2022-10-23T05:47:37.801Z,101124.34
2022-10-23T05:50:04.919Z,101121.75
2022-10-23T05:52:31.642Z,101112.00
2022-10-23T05:54:58.198Z,101115.06
2022-10-23T05:57:24.804Z,101108.22
2022-10-23T05:59:51.565Z,101091.88
2022-10-23T06:02:18.739Z,101109.25
2022-10-23T06:04:45.468Z,101084.47
2022-10-23T06:07:12.104Z,101084.47
2022-10-23T06:09:38.950Z,101091.88
2022-10-23T06:12:08.905Z,101091.19
2022-10-23T06:14:35.720Z,101089.84
2022-10-23T06:17:02.342Z,101068.19
2022-10-23T06:19:28.983Z,101097.25
2022-10-23T06:21:55.792Z,101085.13
2022-10-23T06:24:22.616Z,101077.94
2022-10-23T06:26:49.614Z,101075.97
2022-10-23T06:29:16.404Z,101069.81
2022-10-23T06:31:45.544Z,101064.72
2022-10-23T06:34:12.834Z,101090.81
2022-10-23T06:36:39.636Z,101078.47
2022-10-23T06:39:06.903Z,101063.22
2022-10-23T06:41:36.064Z,101073.75
2022-10-23T06:44:02.995Z,101075.28
2022-10-23T06:46:33.218Z,101027.94
2022-10-23T06:49:02.360Z,101063.16
2022-10-23T06:51:29.826Z,101041.53
2022-10-23T06:53:57.175Z,101043.63
2022-10-23T06:56:25.336Z,101057.22
2022-10-23T06:58:52.212Z,101055.00
2022-10-23T07:01:19.093Z,101057.75
2022-10-23T07:03:48.833Z,101047.63
2022-10-23T07:06:17.976Z,101028.19
2022-10-23T07:08:44.710Z,101064.28
2022-10-23T07:11:14.536Z,101052.63
2022-10-23T07:13:42.185Z,101059.88
2022-10-23T07:16:17.425Z,101036.00
2022-10-23T07:18:44.550Z,101057.16
2022-10-23T07:21:11.601Z,101035.91
2022-10-23T07:23:38.630Z,101025.63
2022-10-23T07:26:14.609Z,101039.50
2022-10-23T07:28:46.613Z,101017.41
2022-10-23T07:31:13.569Z,101011.41
2022-10-23T07:33:40.355Z,101033.22
2022-10-23T07:36:08.589Z,101027.41
2022-10-23T07:38:37.941Z,101027.94
2022-10-23T07:41:06.863Z,101006.16
2022-10-23T07:43:35.724Z,100994.84
2022-10-23T07:46:02.668Z,100996.25
2022-10-23T07:48:29.324Z,101028.84
2022-10-23T07:51:01.641Z,101031.09
2022-10-23T07:53:28.653Z,101017.53
2022-10-23T07:56:02.661Z,101020.31
2022-10-23T07:58:30.091Z,101012.41
2022-10-23T08:00:59.304Z,101012.59
2022-10-23T08:03:33.317Z,101007.78
2022-10-23T08:06:00.460Z,101012.09
2022-10-23T08:08:27.914Z,101001.44
2022-10-23T08:10:57.736Z,101001.94
2022-10-23T08:13:24.727Z,101010.56
2022-10-23T08:15:53.947Z,101007.81
2022-10-23T08:18:23.020Z,100986.53
2022-10-23T08:20:52.370Z,100992.53
2022-10-23T08:23:20.262Z,100999.41
2022-10-23T08:25:47.759Z,100978.28
2022-10-23T08:28:16.991Z,100969.88
2022-10-23T08:30:43.625Z,100992.13
2022-10-23T08:33:12.576Z,100967.94
2022-10-23T08:35:40.511Z,100992.41
2022-10-23T08:38:07.876Z,100996.66
2022-10-23T08:40:38.398Z,100992.16
2022-10-23T08:43:11.011Z,100983.88
2022-10-23T08:45:47.698Z,100984.06
2022-10-23T08:48:28.616Z,100978.22
2022-10-23T08:51:11.695Z,100962.78
2022-10-23T08:53:56.279Z,100960.25
2022-10-23T08:56:27.229Z,100949.78
2022-10-23T08:58:56.128Z,100976.53
2022-10-23T09:01:47.131Z,100968.28
2022-10-23T09:04:15.463Z,100947.56
2022-10-23T09:06:42.715Z,100970.31
2022-10-23T09:09:28.755Z,100945.09
2022-10-23T09:12:11.002Z,100963.03
2022-10-23T09:15:06.970Z,100953.94
2022-10-23T09:17:38.153Z,100954.78
2022-10-23T09:20:25.723Z,100948.09
2022-10-23T09:23:00.438Z,100943.44
2022-10-23T09:25:29.976Z,100920.06
2022-10-23T09:28:05.321Z,100923.28
2022-10-23T09:30:40.495Z,100928.06
2022-10-23T09:33:21.968Z,100903.69
2022-10-23T09:36:18.379Z,100931.66
2022-10-23T09:38:51.496Z,100926.84
2022-10-23T09:41:38.770Z,100924.09
2022-10-23T09:44:17.685Z,100915.25
2022-10-23T09:46:46.862Z,100906.81
2022-10-23T09:49:28.397Z,100869.31
2022-10-23T09:52:11.830Z,100902.97
2022-10-23T09:54:58.540Z,100879.94
2022-10-23T09:57:38.261Z,100895.47
2022-10-23T10:00:14.144Z,100883.88
2022-10-23T10:02:54.572Z,100882.94
2022-10-23T10:05:25.837Z,100891.47
2022-10-23T10:08:27.579Z,100874.22
2022-10-23T10:11:00.810Z,100865.03
2022-10-23T10:13:33.436Z,100875.38
2022-10-23T10:16:20.453Z,100869.50
2022-10-23T10:19:02.693Z,100861.06
2022-10-23T10:21:41.629Z,100849.34
2022-10-23T10:24:17.207Z,100848.59
2022-10-23T10:26:59.610Z,100851.44
2022-10-23T10:29:58.895Z,100839.50
2022-10-23T10:32:42.654Z,100812.53
2022-10-23T10:35:22.526Z,100839.97
2022-10-23T10:38:23.077Z,100831.22
2022-10-23T10:41:14.450Z,100833.22
2022-10-23T10:44:23.414Z,100826.72
2022-10-23T10:47:13.246Z,100827.84
2022-10-23T10:49:53.692Z,100834.97
2022-10-23T10:52:49.379Z,100830.00
2022-10-23T10:55:22.380Z,100816.34
2022-10-23T10:57:59.978Z,100784.88
2022-10-23T11:00:30.255Z,100808.25
2022-10-23T11:03:18.510Z,100799.25
2022-10-23T11:05:54.087Z,100764.84
2022-10-23T11:08:56.180Z,100751.69
2022-10-23T11:11:36.047Z,100785.34
2022-10-23T11:14:03.944Z,100777.75
2022-10-23T11:16:37.255Z,100777.97
2022-10-23T11:19:27.431Z,100770.44
2022-10-23T11:21:54.065Z,100763.47
2022-10-23T11:24:23.541Z,100762.03
2022-10-23T11:27:02.191Z,100753.34
2022-10-23T11:29:51.752Z,100742.31
2022-10-23T11:32:44.207Z,100731.91
2022-10-23T11:35:25.998Z,100744.69
2022-10-23T11:38:07.611Z,100730.47
2022-10-23T11:40:34.776Z,100752.63
2022-10-23T11:43:01.445Z,100719.25
2022-10-23T11:45:36.105Z,100739.06
2022-10-23T11:48:13.964Z,100728.22
2022-10-23T11:50:46.854Z,100715.91
2022-10-23T11:53:31.602Z,100699.09
2022-10-23T11:56:06.730Z,100705.47
2022-10-23T11:58:56.975Z,100704.59
2022-10-23T12:01:45.803Z,100695.03
2022-10-23T12:04:12.857Z,100691.00
2022-10-23T12:06:58.045Z,100689.28
2022-10-23T12:09:36.137Z,100696.72
2022-10-23T12:12:08.144Z,100700.78
2022-10-23T12:14:37.779Z,100696.72
2022-10-23T12:17:23.841Z,100674.19
2022-10-23T12:20:11.567Z,100689.06
2022-10-23T12:23:15.089Z,100692.50
2022-10-23T12:26:15.127Z,100684.81
2022-10-23T12:29:03.140Z,100678.03
2022-10-23T12:31:38.689Z,100676.13
2022-10-23T12:34:32.080Z,100667.59
2022-10-23T12:37:08.396Z,100635.44
2022-10-23T12:39:37.546Z,100642.91
2022-10-23T12:42:16.244Z,100622.03
2022-10-23T12:44:45.074Z,100650.78
2022-10-23T12:47:18.667Z,100644.16
2022-10-23T12:49:50.176Z,100639.91
2022-10-23T12:52:22.018Z,100640.31
2022-10-23T12:54:50.939Z,100628.41
2022-10-23T12:57:21.432Z,100628.41
2022-10-23T12:59:50.904Z,100617.13
2022-10-23T13:02:20.546Z,100617.75
2022-10-23T13:04:50.145Z,100607.31
2022-10-23T13:07:20.990Z,100603.69
2022-10-23T13:09:48.258Z,100601.97
2022-10-23T13:12:28.477Z,100587.09
2022-10-23T13:15:00.177Z,100581.38
2022-10-23T13:17:48.163Z,100567.53
2022-10-23T13:20:18.022Z,100580.72
2022-10-23T13:22:47.572Z,100574.72
2022-10-23T13:25:41.039Z,100564.75
2022-10-23T13:28:10.013Z,100567.28
2022-10-23T13:30:40.349Z,100567.09
2022-10-23T13:33:24.650Z,100557.25
2022-10-23T13:36:04.068Z,100547.28
2022-10-23T13:38:34.108Z,100544.06
2022-10-23T13:41:02.273Z,100536.19
2022-10-23T13:43:30.956Z,100533.00
2022-10-23T13:45:59.278Z,100539.16
2022-10-23T13:48:27.194Z,100535.28
2022-10-23T13:50:54.900Z,100535.94
2022-10-23T13:53:21.525Z,100526.38
2022-10-23T13:55:57.780Z,100504.88
2022-10-23T13:58:25.487Z,100522.09
2022-10-23T14:00:53.217Z,100533.16
2022-10-23T14:03:24.475Z,100518.25
2022-10-23T14:05:51.892Z,100507.22
2022-10-23T14:08:20.831Z,100533.31
2022-10-23T14:10:47.480Z,100511.25
2022-10-23T14:13:16.302Z,100505.06
2022-10-23T14:15:43.112Z,100503.16
2022-10-23T14:18:09.683Z,100497.44
2022-10-23T14:20:39.349Z,100518.47
2022-10-23T14:23:05.988Z,100497.44
2022-10-23T14:25:37.261Z,100524.44
2022-10-23T14:28:06.818Z,100521.47
2022-10-23T14:30:35.671Z,100519.59
2022-10-23T14:33:04.877Z,100524.25
2022-10-23T14:35:31.589Z,100524.47
2022-10-23T14:37:58.856Z,100527.28
2022-10-23T14:40:27.875Z,100534.56
2022-10-23T14:42:54.534Z,100532.84
2022-10-23T14:45:21.324Z,100525.63
2022-10-23T14:47:47.977Z,100522.66
2022-10-23T14:50:15.956Z,100512.69
2022-10-23T14:52:42.676Z,100524.16
2022-10-23T14:55:09.581Z,100506.16
2022-10-23T14:57:36.448Z,100507.41
2022-10-23T15:00:04.489Z,100468.94
2022-10-23T15:02:31.517Z,100500.59
2022-10-23T15:04:58.271Z,100501.25
2022-10-23T15:07:27.098Z,100503.13
2022-10-23T15:09:53.797Z,100461.31
2022-10-23T15:12:20.505Z,100494.84
2022-10-23T15:14:47.531Z,100482.31
2022-10-23T15:17:15.753Z,100466.59
2022-10-23T15:19:45.143Z,100476.16
2022-10-23T15:22:15.051Z,100489.53
2022-10-23T15:24:41.707Z,100480.84
2022-10-23T15:29:36.212Z,100470.44
2022-10-23T15:32:05.269Z,100446.00
2022-10-23T15:34:35.013Z,100470.22
2022-10-23T15:37:04.330Z,100475.34
2022-10-23T15:39:36.022Z,100463.00
2022-10-23T15:42:05.343Z,100442.16
2022-10-23T15:44:34.848Z,100458.56
2022-10-23T15:47:01.557Z,100467.28
2022-10-23T15:49:31.866Z,100467.91
2022-10-23T15:52:00.847Z,100455.34
2022-10-23T15:54:30.502Z,100447.69
2022-10-23T15:56:59.367Z,100431.31
2022-10-23T15:59:26.495Z,100418.19
2022-10-23T16:01:56.696Z,100400.53
2022-10-23T16:04:24.335Z,100390.97
2022-10-23T16:06:50.982Z,100394.78
2022-10-23T16:09:17.769Z,100386.94
2022-10-23T16:11:44.522Z,100400.13
2022-10-23T16:14:15.889Z,100372.72
2022-10-23T16:16:43.362Z,100366.34
2022-10-23T16:19:10.950Z,100396.06
2022-10-23T16:21:37.666Z,100388.41
2022-10-23T16:24:06.351Z,100395.66
2022-10-23T16:26:33.911Z,100400.56
2022-10-23T16:29:03.486Z,100395.25
2022-10-23T16:31:30.318Z,100403.09
2022-10-23T16:34:01.233Z,100408.38
2022-10-23T16:36:28.809Z,100395.66
2022-10-23T16:38:55.599Z,100382.50
2022-10-23T16:41:24.776Z,100401.63
2022-10-23T16:43:56.283Z,100414.53
2022-10-23T16:46:23.086Z,100407.75
2022-10-23T16:48:51.523Z,100423.28
2022-10-23T16:51:21.376Z,100382.50
2022-10-23T16:53:48.750Z,100381.41
2022-10-23T16:56:18.896Z,100399.91
2022-10-23T16:58:46.133Z,100388.44
2022-10-23T17:01:25.030Z,100377.19
2022-10-23T17:03:53.148Z,100386.72
2022-10-23T17:06:26.034Z,100394.16
2022-10-23T17:08:53.688Z,100403.50
2022-10-23T17:11:21.697Z,100361.88
2022-10-23T17:14:15.887Z,100393.53
2022-10-23T17:16:47.722Z,100388.84
2022-10-23T17:19:46.459Z,100397.56
2022-10-23T17:22:10.677Z,100389.69
2022-10-23T17:24:44.126Z,100401.63
2022-10-23T17:27:13.132Z,100390.78
2022-10-23T17:29:39.895Z,100376.53
2022-10-23T17:32:09.079Z,100371.00
2022-10-23T17:34:35.814Z,100396.06
2022-10-23T17:37:04.968Z,100382.25
2022-10-23T17:39:31.846Z,100369.31
2022-10-23T17:41:59.089Z,100400.31
2022-10-23T17:44:26.051Z,100394.59
2022-10-23T17:46:55.133Z,100378.22
2022-10-23T17:49:23.267Z,100420.28
2022-10-23T17:51:55.893Z,100412.19
2022-10-23T17:54:23.885Z,100401.56
2022-10-23T17:56:50.750Z,100398.41
2022-10-23T17:59:19.778Z,100375.47
2022-10-23T18:01:48.621Z,100386.28
2022-10-23T18:04:17.712Z,100401.56
2022-10-23T18:06:48.103Z,100371.78
2022-10-23T18:09:19.724Z,100387.91
2022-10-23T18:11:48.234Z,100407.28
2022-10-23T18:14:17.353Z,100364.31
2022-10-23T18:16:45.838Z,100355.00
2022-10-23T18:19:13.994Z,100368.56
2022-10-23T18:21:40.803Z,100380.69
2022-10-23T18:24:07.744Z,100378.13
2022-10-23T18:26:35.342Z,100368.13
2022-10-23T18:29:07.247Z,100385.34
2022-10-23T18:31:35.992Z,100383.41
2022-10-23T18:34:11.447Z,100375.56
2022-10-23T18:36:43.475Z,100350.94
2022-10-23T18:39:13.840Z,100363.69
2022-10-23T18:41:43.302Z,100362.44
2022-10-23T18:44:13.997Z,100355.44
2022-10-23T18:46:40.980Z,100369.22
2022-10-23T18:49:10.502Z,100338.00
2022-10-23T18:51:39.931Z,100345.91
2022-10-23T18:54:10.512Z,100360.38
2022-10-23T18:56:39.904Z,100346.38
2022-10-23T18:59:10.352Z,100354.44
2022-10-23T19:01:39.908Z,100350.63
2022-10-23T19:04:11.717Z,100347.59
2022-10-23T19:06:39.029Z,100393.50
2022-10-23T19:09:14.784Z,100415.56
2022-10-23T19:11:42.556Z,100415.16
2022-10-23T19:14:09.877Z,100419.22
2022-10-23T19:16:58.627Z,100367.41
2022-10-23T19:19:29.828Z,100388.22
2022-10-23T19:21:57.053Z,100381.63
2022-10-23T19:24:29.604Z,100333.00
2022-10-23T19:26:57.902Z,100372.91
2022-10-23T19:29:28.719Z,100344.19
2022-10-23T19:31:55.863Z,100372.69
2022-10-23T19:34:24.950Z,100375.88
2022-10-23T19:36:55.980Z,100383.06
2022-10-23T19:39:22.947Z,100388.75
2022-10-23T19:41:51.669Z,100410.19
2022-10-23T19:44:19.099Z,100405.50
2022-10-23T19:46:45.965Z,100413.34
2022-10-23T19:49:12.718Z,100410.78
2022-10-23T19:51:39.662Z,100405.66
2022-10-23T19:54:06.880Z,100407.69
2022-10-23T19:56:33.541Z,100426.78
2022-10-23T19:59:02.733Z,100427.81
2022-10-23T20:01:29.612Z,100398.91
2022-10-23T20:03:56.762Z,100409.44
2022-10-23T20:06:26.948Z,100431.56
2022-10-23T20:08:54.763Z,100416.41
2022-10-23T20:11:28.381Z,100444.66
2022-10-23T20:13:55.950Z,100434.16
2022-10-23T20:16:28.965Z,100438.41
2022-10-23T20:18:59.079Z,100459.69
2022-10-23T20:21:26.146Z,100449.25
2022-10-23T20:23:52.889Z,100445.56
2022-10-23T20:26:24.089Z,100462.38
2022-10-23T20:28:53.889Z,100444.25
2022-10-23T20:31:22.396Z,100464.44
2022-10-23T20:33:49.922Z,100448.25
2022-10-23T20:36:26.858Z,100446.25
2022-10-23T20:38:56.683Z,100467.28
2022-10-23T20:41:26.085Z,100460.44
2022-10-23T20:43:58.098Z,100466.59
2022-10-23T20:46:24.840Z,100480.81
2022-10-23T20:48:52.110Z,100471.22
2022-10-23T20:51:20.981Z,100456.03
2022-10-23T20:53:48.693Z,100473.28
2022-10-23T20:56:30.053Z,100475.84
2022-10-23T20:59:00.740Z,100451.19
2022-10-23T21:01:28.369Z,100483.50
2022-10-23T21:03:57.103Z,100478.00
2022-10-23T21:06:41.030Z,100439.66
2022-10-23T21:09:17.923Z,100469.88
2022-10-23T21:11:44.645Z,100451.19
2022-10-23T21:14:11.849Z,100462.25
2022-10-23T21:16:44.720Z,100464.38
2022-10-23T21:19:16.116Z,100472.00
2022-10-23T21:21:43.671Z,100461.47
2022-10-23T21:24:14.644Z,100461.09
2022-10-23T21:26:41.813Z,100477.19
2022-10-23T21:29:23.774Z,100479.78
2022-10-23T21:32:01.619Z,100474.75
2022-10-23T21:34:30.251Z,100456.72
2022-10-23T21:37:12.604Z,100440.94
2022-10-23T21:39:41.359Z,100459.06
2022-10-23T21:42:08.242Z,100490.00
2022-10-23T21:44:37.150Z,100481.38
2022-10-23T21:47:06.161Z,100475.41
2022-10-23T21:49:35.280Z,100463.13
2022-10-23T21:52:04.225Z,100462.84
2022-10-23T21:54:30.921Z,100430.78
2022-10-23T21:56:57.767Z,100459.47
2022-10-23T21:59:34.826Z,100449.25
2022-10-23T22:02:02.587Z,100467.63
2022-10-23T22:04:29.556Z,100486.25
2022-10-23T22:06:56.301Z,100491.97
2022-10-23T22:09:25.355Z,100456.75
2022-10-23T22:11:53.788Z,100465.00
2022-10-23T22:14:21.315Z,100475.50
2022-10-23T22:16:48.093Z,100472.03
2022-10-23T22:19:17.009Z,100467.78
2022-10-23T22:21:46.234Z,100469.47
2022-10-23T22:24:15.773Z,100443.28
2022-10-23T22:26:46.281Z,100468.44
2022-10-23T22:29:17.316Z,100455.47
2022-10-23T22:31:48.780Z,100457.09
2022-10-23T22:34:47.758Z,100413.28
2022-10-23T22:37:10.637Z,100449.91
2022-10-23T22:39:37.691Z,100437.50
2022-10-23T22:42:07.004Z,100430.56
2022-10-23T22:44:33.582Z,100439.09
2022-10-23T22:47:00.312Z,100418.91
2022-10-23T22:49:26.927Z,100403.00
2022-10-23T22:51:53.777Z,100428.13
2022-10-23T22:54:20.418Z,100434.88
2022-10-23T22:56:47.241Z,100429.91
2022-10-23T22:59:13.964Z,100425.41
2022-10-23T23:01:44.292Z,100422.25
2022-10-23T23:04:37.940Z,100414.00
2022-10-23T23:07:05.228Z,100389.09
2022-10-23T23:09:35.340Z,100403.38
2022-10-23T23:12:01.919Z,100391.84
2022-10-23T23:14:28.704Z,100413.91
2022-10-23T23:16:55.985Z,100409.47
2022-10-23T23:19:23.355Z,100387.06
2022-10-23T23:21:50.314Z,100406.47
2022-10-23T23:24:17.110Z,100367.66
2022-10-23T23:26:43.870Z,100400.41
2022-10-23T23:29:10.655Z,100363.19
2022-10-23T23:31:39.746Z,100394.16
2022-10-23T23:34:06.527Z,100393.03
2022-10-23T23:36:33.969Z,100371.91
2022-10-23T23:39:01.283Z,100396.44
2022-10-23T23:41:29.012Z,100401.75
2022-10-23T23:43:57.555Z,100371.56
2022-10-23T23:46:24.891Z,100391.53
2022-10-23T23:48:51.647Z,100388.97
2022-10-23T23:51:22.934Z,100389.81
2022-10-23T23:53:52.788Z,100386.22
2022-10-23T23:56:19.890Z,100373.41
2022-10-23T23:58:49.317Z,100359.13
